sensor_id;sensor_type;location;lat;lon;timestamp;P1;durP1;ratioP1;P2;durP2;ratioP2
37785;SDS011;23625;48.784;9.336;2022-07-10T00:00:30;8.23;;;5.00;;
37785;SDS011;23625;48.784;9.336;2022-07-10T00:02:57;7.85;;;5.60;;
37785;SDS011;23625;48.784;9.336;2022-07-10T00:05:23;9.10;;;5.45;;
37785;SDS011;23625;48.784;9.336;2022-07-10T00:07:49;8.27;;;5.15;;
37785;SDS011;23625;48.784;9.336;2022-07-10T00:10:16;7.43;;;5.40;;
37785;SDS011;23625;48.784;9.336;2022-07-10T00:12:43;10.93;;;5.85;;
37785;SDS011;23625;48.784;9.336;2022-07-10T00:15:10;9.55;;;5.72;;
37785;SDS011;23625;48.784;9.336;2022-07-10T00:17:36;6.63;;;5.43;;
37785;SDS011;23625;48.784;9.336;2022-07-10T00:20:03;6.90;;;5.50;;
37785;SDS011;23625;48.784;9.336;2022-07-10T00:22:31;6.78;;;5.55;;
37785;SDS011;23625;48.784;9.336;2022-07-10T00:24:59;12.63;;;5.95;;
37785;SDS011;23625;48.784;9.336;2022-07-10T00:27:35;8.02;;;6.10;;
37785;SDS011;23625;48.784;9.336;2022-07-10T00:30:01;10.48;;;5.40;;
37785;SDS011;23625;48.784;9.336;2022-07-10T00:32:28;8.75;;;5.75;;
37785;SDS011;23625;48.784;9.336;2022-07-10T00:34:53;8.75;;;5.15;;
37785;SDS011;23625;48.784;9.336;2022-07-10T00:37:19;9.43;;;4.95;;
37785;SDS011;23625;48.784;9.336;2022-07-10T00:39:46;7.57;;;5.60;;
37785;SDS011;23625;48.784;9.336;2022-07-10T00:42:13;7.93;;;5.60;;
37785;SDS011;23625;48.784;9.336;2022-07-10T00:44:40;7.72;;;5.95;;
37785;SDS011;23625;48.784;9.336;2022-07-10T00:47:07;7.57;;;5.70;;
37785;SDS011;23625;48.784;9.336;2022-07-10T00:49:34;6.15;;;5.30;;
37785;SDS011;23625;48.784;9.336;2022-07-10T00:52:02;8.80;;;5.72;;
37785;SDS011;23625;48.784;9.336;2022-07-10T00:54:30;10.07;;;5.40;;
37785;SDS011;23625;48.784;9.336;2022-07-10T00:56:57;7.72;;;5.43;;
37785;SDS011;23625;48.784;9.336;2022-07-10T00:59:24;10.02;;;5.90;;
37785;SDS011;23625;48.784;9.336;2022-07-10T01:01:50;8.43;;;4.72;;
37785;SDS011;23625;48.784;9.336;2022-07-10T01:04:16;6.68;;;4.95;;
37785;SDS011;23625;48.784;9.336;2022-07-10T01:06:42;7.95;;;5.38;;
37785;SDS011;23625;48.784;9.336;2022-07-10T01:09:08;9.88;;;6.03;;
37785;SDS011;23625;48.784;9.336;2022-07-10T01:11:34;7.57;;;5.43;;
37785;SDS011;23625;48.784;9.336;2022-07-10T01:14:01;9.63;;;5.72;;
37785;SDS011;23625;48.784;9.336;2022-07-10T01:16:27;9.15;;;5.13;;
37785;SDS011;23625;48.784;9.336;2022-07-10T01:18:54;10.25;;;5.85;;
37785;SDS011;23625;48.784;9.336;2022-07-10T01:21:30;7.07;;;5.38;;
37785;SDS011;23625;48.784;9.336;2022-07-10T01:23:58;8.02;;;5.45;;
37785;SDS011;23625;48.784;9.336;2022-07-10T01:26:24;7.53;;;5.25;;
37785;SDS011;23625;48.784;9.336;2022-07-10T01:28:51;7.78;;;5.47;;
37785;SDS011;23625;48.784;9.336;2022-07-10T01:31:18;9.00;;;6.28;;
37785;SDS011;23625;48.784;9.336;2022-07-10T01:33:45;8.63;;;5.55;;
37785;SDS011;23625;48.784;9.336;2022-07-10T01:36:13;10.85;;;5.80;;
37785;SDS011;23625;48.784;9.336;2022-07-10T01:38:40;8.13;;;5.68;;
37785;SDS011;23625;48.784;9.336;2022-07-10T01:41:06;7.68;;;5.40;;
37785;SDS011;23625;48.784;9.336;2022-07-10T01:43:33;7.47;;;5.75;;
37785;SDS011;23625;48.784;9.336;2022-07-10T01:46:05;7.65;;;5.72;;
37785;SDS011;23625;48.784;9.336;2022-07-10T01:48:30;9.32;;;5.97;;
37785;SDS011;23625;48.784;9.336;2022-07-10T01:50:56;9.50;;;5.55;;
37785;SDS011;23625;48.784;9.336;2022-07-10T01:53:22;8.77;;;5.60;;
37785;SDS011;23625;48.784;9.336;2022-07-10T01:55:48;14.77;;;5.78;;
37785;SDS011;23625;48.784;9.336;2022-07-10T01:58:14;8.77;;;5.60;;
37785;SDS011;23625;48.784;9.336;2022-07-10T02:00:39;8.48;;;5.57;;
37785;SDS011;23625;48.784;9.336;2022-07-10T02:03:05;6.13;;;5.53;;
37785;SDS011;23625;48.784;9.336;2022-07-10T02:05:49;8.60;;;5.30;;
37785;SDS011;23625;48.784;9.336;2022-07-10T02:08:15;7.40;;;5.20;;
37785;SDS011;23625;48.784;9.336;2022-07-10T02:10:40;9.05;;;5.78;;
37785;SDS011;23625;48.784;9.336;2022-07-10T02:13:06;6.85;;;5.05;;
37785;SDS011;23625;48.784;9.336;2022-07-10T02:15:32;9.15;;;5.68;;
37785;SDS011;23625;48.784;9.336;2022-07-10T02:17:57;7.47;;;5.78;;
37785;SDS011;23625;48.784;9.336;2022-07-10T02:20:23;8.68;;;5.75;;
37785;SDS011;23625;48.784;9.336;2022-07-10T02:22:48;14.50;;;5.43;;
37785;SDS011;23625;48.784;9.336;2022-07-10T02:25:14;6.28;;;5.30;;
37785;SDS011;23625;48.784;9.336;2022-07-10T02:27:40;8.40;;;5.10;;
37785;SDS011;23625;48.784;9.336;2022-07-10T02:30:05;7.95;;;5.28;;
37785;SDS011;23625;48.784;9.336;2022-07-10T02:32:31;9.48;;;5.72;;
37785;SDS011;23625;48.784;9.336;2022-07-10T02:34:57;8.30;;;5.32;;
37785;SDS011;23625;48.784;9.336;2022-07-10T02:37:22;7.57;;;5.75;;
37785;SDS011;23625;48.784;9.336;2022-07-10T02:39:48;9.70;;;6.03;;
37785;SDS011;23625;48.784;9.336;2022-07-10T02:42:14;6.75;;;5.25;;
37785;SDS011;23625;48.784;9.336;2022-07-10T02:44:40;10.73;;;5.63;;
37785;SDS011;23625;48.784;9.336;2022-07-10T02:47:05;6.70;;;4.88;;
37785;SDS011;23625;48.784;9.336;2022-07-10T02:49:31;6.63;;;5.03;;
37785;SDS011;23625;48.784;9.336;2022-07-10T02:51:58;8.05;;;5.63;;
37785;SDS011;23625;48.784;9.336;2022-07-10T02:54:23;8.60;;;5.70;;
37785;SDS011;23625;48.784;9.336;2022-07-10T02:56:49;7.60;;;6.20;;
37785;SDS011;23625;48.784;9.336;2022-07-10T02:59:15;8.32;;;6.07;;
37785;SDS011;23625;48.784;9.336;2022-07-10T03:01:42;16.40;;;8.75;;
37785;SDS011;23625;48.784;9.336;2022-07-10T03:04:07;17.25;;;7.53;;
37785;SDS011;23625;48.784;9.336;2022-07-10T03:06:33;8.60;;;6.90;;
37785;SDS011;23625;48.784;9.336;2022-07-10T03:08:58;9.65;;;6.88;;
37785;SDS011;23625;48.784;9.336;2022-07-10T03:11:24;11.13;;;7.07;;
37785;SDS011;23625;48.784;9.336;2022-07-10T03:13:49;13.43;;;7.53;;
37785;SDS011;23625;48.784;9.336;2022-07-10T03:16:15;11.60;;;7.97;;
37785;SDS011;23625;48.784;9.336;2022-07-10T03:18:40;12.82;;;7.25;;
37785;SDS011;23625;48.784;9.336;2022-07-10T03:21:06;11.15;;;6.93;;
37785;SDS011;23625;48.784;9.336;2022-07-10T03:23:32;12.00;;;8.35;;
37785;SDS011;23625;48.784;9.336;2022-07-10T03:25:57;11.93;;;7.63;;
37785;SDS011;23625;48.784;9.336;2022-07-10T03:28:23;11.05;;;7.65;;
37785;SDS011;23625;48.784;9.336;2022-07-10T03:30:48;13.70;;;7.10;;
37785;SDS011;23625;48.784;9.336;2022-07-10T03:33:14;11.27;;;7.30;;
37785;SDS011;23625;48.784;9.336;2022-07-10T03:35:39;8.75;;;7.22;;
37785;SDS011;23625;48.784;9.336;2022-07-10T03:38:05;11.88;;;8.43;;
37785;SDS011;23625;48.784;9.336;2022-07-10T03:40:31;12.05;;;7.68;;
37785;SDS011;23625;48.784;9.336;2022-07-10T03:42:56;14.90;;;7.68;;
37785;SDS011;23625;48.784;9.336;2022-07-10T03:45:22;12.38;;;7.30;;
37785;SDS011;23625;48.784;9.336;2022-07-10T03:47:49;12.30;;;7.10;;
37785;SDS011;23625;48.784;9.336;2022-07-10T03:50:14;15.68;;;7.57;;
37785;SDS011;23625;48.784;9.336;2022-07-10T03:52:40;14.10;;;7.07;;
37785;SDS011;23625;48.784;9.336;2022-07-10T03:55:06;13.10;;;7.90;;
37785;SDS011;23625;48.784;9.336;2022-07-10T03:57:31;10.15;;;7.50;;
37785;SDS011;23625;48.784;9.336;2022-07-10T04:00:15;13.07;;;7.45;;
37785;SDS011;23625;48.784;9.336;2022-07-10T04:02:41;11.10;;;6.97;;
37785;SDS011;23625;48.784;9.336;2022-07-10T04:05:07;11.32;;;8.00;;
37785;SDS011;23625;48.784;9.336;2022-07-10T04:07:34;13.13;;;7.40;;
37785;SDS011;23625;48.784;9.336;2022-07-10T04:10:00;12.18;;;8.02;;
37785;SDS011;23625;48.784;9.336;2022-07-10T04:12:27;13.93;;;8.18;;
37785;SDS011;23625;48.784;9.336;2022-07-10T04:14:53;11.00;;;7.90;;
37785;SDS011;23625;48.784;9.336;2022-07-10T04:17:18;13.45;;;9.25;;
37785;SDS011;23625;48.784;9.336;2022-07-10T04:19:44;10.75;;;7.45;;
37785;SDS011;23625;48.784;9.336;2022-07-10T04:22:11;11.98;;;7.93;;
37785;SDS011;23625;48.784;9.336;2022-07-10T04:24:36;13.77;;;7.95;;
37785;SDS011;23625;48.784;9.336;2022-07-10T04:27:02;10.55;;;7.53;;
37785;SDS011;23625;48.784;9.336;2022-07-10T04:29:28;16.65;;;8.63;;
37785;SDS011;23625;48.784;9.336;2022-07-10T04:31:54;9.98;;;7.55;;
37785;SDS011;23625;48.784;9.336;2022-07-10T04:34:19;14.93;;;8.23;;
37785;SDS011;23625;48.784;9.336;2022-07-10T04:36:45;15.13;;;7.10;;
37785;SDS011;23625;48.784;9.336;2022-07-10T04:39:11;18.65;;;7.72;;
37785;SDS011;23625;48.784;9.336;2022-07-10T04:41:36;12.68;;;7.45;;
37785;SDS011;23625;48.784;9.336;2022-07-10T04:44:02;13.90;;;7.40;;
37785;SDS011;23625;48.784;9.336;2022-07-10T04:46:28;15.82;;;7.68;;
37785;SDS011;23625;48.784;9.336;2022-07-10T04:48:53;13.52;;;7.50;;
37785;SDS011;23625;48.784;9.336;2022-07-10T04:51:19;11.48;;;7.50;;
37785;SDS011;23625;48.784;9.336;2022-07-10T04:53:45;10.38;;;7.30;;
37785;SDS011;23625;48.784;9.336;2022-07-10T04:56:11;14.77;;;7.38;;
37785;SDS011;23625;48.784;9.336;2022-07-10T04:58:36;11.75;;;7.95;;
37785;SDS011;23625;48.784;9.336;2022-07-10T05:01:02;10.10;;;7.43;;
37785;SDS011;23625;48.784;9.336;2022-07-10T05:03:28;17.00;;;7.13;;
37785;SDS011;23625;48.784;9.336;2022-07-10T05:05:54;10.23;;;6.75;;
37785;SDS011;23625;48.784;9.336;2022-07-10T05:08:19;10.55;;;6.60;;
37785;SDS011;23625;48.784;9.336;2022-07-10T05:10:45;13.00;;;6.97;;
37785;SDS011;23625;48.784;9.336;2022-07-10T05:13:11;12.10;;;6.78;;
37785;SDS011;23625;48.784;9.336;2022-07-10T05:15:37;13.05;;;6.88;;
37785;SDS011;23625;48.784;9.336;2022-07-10T05:18:03;16.60;;;6.30;;
37785;SDS011;23625;48.784;9.336;2022-07-10T05:20:29;8.25;;;6.30;;
37785;SDS011;23625;48.784;9.336;2022-07-10T05:22:55;10.48;;;6.63;;
37785;SDS011;23625;48.784;9.336;2022-07-10T05:25:21;9.82;;;5.95;;
37785;SDS011;23625;48.784;9.336;2022-07-10T05:27:47;10.77;;;6.03;;
37785;SDS011;23625;48.784;9.336;2022-07-10T05:30:12;8.52;;;5.45;;
37785;SDS011;23625;48.784;9.336;2022-07-10T05:32:42;15.27;;;6.50;;
37785;SDS011;23625;48.784;9.336;2022-07-10T05:35:08;11.68;;;6.38;;
37785;SDS011;23625;48.784;9.336;2022-07-10T05:37:34;9.02;;;6.30;;
37785;SDS011;23625;48.784;9.336;2022-07-10T05:39:59;15.43;;;6.95;;
37785;SDS011;23625;48.784;9.336;2022-07-10T05:42:25;14.65;;;7.47;;
37785;SDS011;23625;48.784;9.336;2022-07-10T05:44:51;7.88;;;6.55;;
37785;SDS011;23625;48.784;9.336;2022-07-10T05:47:16;14.05;;;6.53;;
37785;SDS011;23625;48.784;9.336;2022-07-10T05:49:42;11.95;;;6.03;;
37785;SDS011;23625;48.784;9.336;2022-07-10T05:52:07;9.25;;;5.82;;
37785;SDS011;23625;48.784;9.336;2022-07-10T05:54:33;15.90;;;6.22;;
37785;SDS011;23625;48.784;9.336;2022-07-10T05:56:58;9.23;;;4.97;;
37785;SDS011;23625;48.784;9.336;2022-07-10T05:59:24;7.68;;;4.18;;
37785;SDS011;23625;48.784;9.336;2022-07-10T06:01:49;6.97;;;3.85;;
37785;SDS011;23625;48.784;9.336;2022-07-10T06:04:15;11.13;;;3.97;;
37785;SDS011;23625;48.784;9.336;2022-07-10T06:06:41;6.82;;;4.22;;
37785;SDS011;23625;48.784;9.336;2022-07-10T06:09:06;5.32;;;3.38;;
37785;SDS011;23625;48.784;9.336;2022-07-10T06:11:32;11.55;;;3.45;;
37785;SDS011;23625;48.784;9.336;2022-07-10T06:13:57;10.65;;;4.05;;
37785;SDS011;23625;48.784;9.336;2022-07-10T06:16:23;10.52;;;3.70;;
37785;SDS011;23625;48.784;9.336;2022-07-10T06:18:49;9.20;;;3.25;;
37785;SDS011;23625;48.784;9.336;2022-07-10T06:21:14;5.03;;;3.30;;
37785;SDS011;23625;48.784;9.336;2022-07-10T06:23:40;7.93;;;3.47;;
37785;SDS011;23625;48.784;9.336;2022-07-10T06:26:05;5.40;;;3.13;;
37785;SDS011;23625;48.784;9.336;2022-07-10T06:28:33;9.70;;;3.88;;
37785;SDS011;23625;48.784;9.336;2022-07-10T06:30:59;7.25;;;3.97;;
37785;SDS011;23625;48.784;9.336;2022-07-10T06:33:25;8.70;;;3.47;;
37785;SDS011;23625;48.784;9.336;2022-07-10T06:35:50;5.88;;;2.78;;
37785;SDS011;23625;48.784;9.336;2022-07-10T06:38:16;8.18;;;3.08;;
37785;SDS011;23625;48.784;9.336;2022-07-10T06:40:41;7.40;;;3.70;;
37785;SDS011;23625;48.784;9.336;2022-07-10T06:43:08;9.20;;;2.95;;
37785;SDS011;23625;48.784;9.336;2022-07-10T06:45:33;7.10;;;2.83;;
37785;SDS011;23625;48.784;9.336;2022-07-10T06:47:59;6.05;;;2.70;;
37785;SDS011;23625;48.784;9.336;2022-07-10T06:50:25;5.15;;;3.00;;
37785;SDS011;23625;48.784;9.336;2022-07-10T06:52:54;8.95;;;2.85;;
37785;SDS011;23625;48.784;9.336;2022-07-10T06:55:20;7.20;;;2.95;;
37785;SDS011;23625;48.784;9.336;2022-07-10T06:57:46;10.07;;;3.15;;
37785;SDS011;23625;48.784;9.336;2022-07-10T07:00:12;6.13;;;2.80;;
37785;SDS011;23625;48.784;9.336;2022-07-10T07:02:38;8.57;;;3.20;;
37785;SDS011;23625;48.784;9.336;2022-07-10T07:05:05;10.32;;;3.03;;
37785;SDS011;23625;48.784;9.336;2022-07-10T07:07:31;7.75;;;2.97;;
37785;SDS011;23625;48.784;9.336;2022-07-10T07:09:57;12.48;;;2.78;;
37785;SDS011;23625;48.784;9.336;2022-07-10T07:12:22;8.00;;;2.80;;
37785;SDS011;23625;48.784;9.336;2022-07-10T07:14:48;6.68;;;2.80;;
37785;SDS011;23625;48.784;9.336;2022-07-10T07:17:14;8.63;;;2.50;;
37785;SDS011;23625;48.784;9.336;2022-07-10T07:19:46;5.90;;;2.40;;
37785;SDS011;23625;48.784;9.336;2022-07-10T07:22:31;5.03;;;2.13;;
37785;SDS011;23625;48.784;9.336;2022-07-10T07:25:15;5.43;;;1.83;;
37785;SDS011;23625;48.784;9.336;2022-07-10T07:27:40;9.02;;;2.50;;
37785;SDS011;23625;48.784;9.336;2022-07-10T07:30:07;2.58;;;2.13;;
37785;SDS011;23625;48.784;9.336;2022-07-10T07:32:39;6.40;;;2.10;;
37785;SDS011;23625;48.784;9.336;2022-07-10T07:35:06;6.55;;;1.80;;
37785;SDS011;23625;48.784;9.336;2022-07-10T07:37:42;8.60;;;2.60;;
37785;SDS011;23625;48.784;9.336;2022-07-10T07:40:13;7.22;;;2.15;;
37785;SDS011;23625;48.784;9.336;2022-07-10T07:42:40;3.83;;;1.60;;
37785;SDS011;23625;48.784;9.336;2022-07-10T07:45:06;10.23;;;2.65;;
37785;SDS011;23625;48.784;9.336;2022-07-10T07:47:46;9.30;;;2.55;;
37785;SDS011;23625;48.784;9.336;2022-07-10T07:50:17;5.22;;;2.00;;
37785;SDS011;23625;48.784;9.336;2022-07-10T07:52:45;6.25;;;2.28;;
37785;SDS011;23625;48.784;9.336;2022-07-10T07:55:11;6.13;;;1.75;;
37785;SDS011;23625;48.784;9.336;2022-07-10T07:57:38;11.05;;;1.90;;
37785;SDS011;23625;48.784;9.336;2022-07-10T08:00:04;6.47;;;1.42;;
37785;SDS011;23625;48.784;9.336;2022-07-10T08:02:32;3.78;;;1.88;;
37785;SDS011;23625;48.784;9.336;2022-07-10T08:04:57;6.68;;;1.60;;
37785;SDS011;23625;48.784;9.336;2022-07-10T08:07:23;5.68;;;1.83;;
37785;SDS011;23625;48.784;9.336;2022-07-10T08:09:57;4.63;;;2.03;;
37785;SDS011;23625;48.784;9.336;2022-07-10T08:12:23;13.02;;;2.00;;
37785;SDS011;23625;48.784;9.336;2022-07-10T08:14:48;8.82;;;2.00;;
37785;SDS011;23625;48.784;9.336;2022-07-10T08:17:14;5.25;;;1.60;;
37785;SDS011;23625;48.784;9.336;2022-07-10T08:19:39;4.10;;;1.85;;
37785;SDS011;23625;48.784;9.336;2022-07-10T08:22:05;9.85;;;2.20;;
37785;SDS011;23625;48.784;9.336;2022-07-10T08:24:31;5.50;;;2.20;;
37785;SDS011;23625;48.784;9.336;2022-07-10T08:26:56;6.70;;;1.63;;
37785;SDS011;23625;48.784;9.336;2022-07-10T08:29:22;6.40;;;1.73;;
37785;SDS011;23625;48.784;9.336;2022-07-10T08:31:48;15.25;;;2.88;;
37785;SDS011;23625;48.784;9.336;2022-07-10T08:34:13;4.80;;;1.67;;
37785;SDS011;23625;48.784;9.336;2022-07-10T08:36:39;5.03;;;1.75;;
37785;SDS011;23625;48.784;9.336;2022-07-10T08:39:04;4.25;;;1.70;;
37785;SDS011;23625;48.784;9.336;2022-07-10T08:41:30;5.47;;;1.83;;
37785;SDS011;23625;48.784;9.336;2022-07-10T08:43:59;7.32;;;1.65;;
37785;SDS011;23625;48.784;9.336;2022-07-10T08:46:24;5.50;;;1.70;;
37785;SDS011;23625;48.784;9.336;2022-07-10T08:48:52;2.78;;;1.45;;
37785;SDS011;23625;48.784;9.336;2022-07-10T08:51:24;5.82;;;1.60;;
37785;SDS011;23625;48.784;9.336;2022-07-10T08:53:55;6.88;;;1.45;;
37785;SDS011;23625;48.784;9.336;2022-07-10T08:56:24;8.00;;;2.17;;
37785;SDS011;23625;48.784;9.336;2022-07-10T08:58:49;5.95;;;1.92;;
37785;SDS011;23625;48.784;9.336;2022-07-10T09:01:18;4.53;;;1.67;;
37785;SDS011;23625;48.784;9.336;2022-07-10T09:03:48;5.53;;;1.80;;
37785;SDS011;23625;48.784;9.336;2022-07-10T09:06:14;2.72;;;1.80;;
37785;SDS011;23625;48.784;9.336;2022-07-10T09:08:44;2.92;;;2.00;;
37785;SDS011;23625;48.784;9.336;2022-07-10T09:11:23;6.53;;;1.55;;
37785;SDS011;23625;48.784;9.336;2022-07-10T09:13:54;3.47;;;1.80;;
37785;SDS011;23625;48.784;9.336;2022-07-10T09:16:22;3.00;;;1.52;;
37785;SDS011;23625;48.784;9.336;2022-07-10T09:18:55;5.18;;;1.73;;
37785;SDS011;23625;48.784;9.336;2022-07-10T09:21:21;7.28;;;1.80;;
37785;SDS011;23625;48.784;9.336;2022-07-10T09:23:47;5.55;;;1.40;;
37785;SDS011;23625;48.784;9.336;2022-07-10T09:26:13;8.45;;;1.70;;
37785;SDS011;23625;48.784;9.336;2022-07-10T09:28:39;3.53;;;2.13;;
37785;SDS011;23625;48.784;9.336;2022-07-10T09:31:08;6.18;;;1.77;;
37785;SDS011;23625;48.784;9.336;2022-07-10T09:33:33;5.90;;;1.90;;
37785;SDS011;23625;48.784;9.336;2022-07-10T09:36:04;7.60;;;1.60;;
37785;SDS011;23625;48.784;9.336;2022-07-10T09:38:47;6.83;;;1.47;;
37785;SDS011;23625;48.784;9.336;2022-07-10T09:43:46;6.40;;;1.50;;
37785;SDS011;23625;48.784;9.336;2022-07-10T09:46:31;12.90;;;1.75;;
37785;SDS011;23625;48.784;9.336;2022-07-10T09:49:08;3.55;;;1.40;;
37785;SDS011;23625;48.784;9.336;2022-07-10T09:51:39;8.73;;;1.50;;
37785;SDS011;23625;48.784;9.336;2022-07-10T09:54:06;4.53;;;1.50;;
37785;SDS011;23625;48.784;9.336;2022-07-10T09:59:15;7.90;;;1.40;;
37785;SDS011;23625;48.784;9.336;2022-07-10T10:01:46;4.63;;;1.80;;
37785;SDS011;23625;48.784;9.336;2022-07-10T10:04:16;2.85;;;1.50;;
37785;SDS011;23625;48.784;9.336;2022-07-10T10:06:49;5.47;;;1.75;;
37785;SDS011;23625;48.784;9.336;2022-07-10T10:11:57;5.43;;;1.40;;
37785;SDS011;23625;48.784;9.336;2022-07-10T10:14:28;6.20;;;1.40;;
37785;SDS011;23625;48.784;9.336;2022-07-10T10:16:54;7.70;;;1.85;;
37785;SDS011;23625;48.784;9.336;2022-07-10T10:19:20;8.25;;;1.38;;
37785;SDS011;23625;48.784;9.336;2022-07-10T10:22:07;6.95;;;1.67;;
37785;SDS011;23625;48.784;9.336;2022-07-10T10:24:34;9.00;;;1.70;;
37785;SDS011;23625;48.784;9.336;2022-07-10T10:27:01;3.90;;;1.40;;
37785;SDS011;23625;48.784;9.336;2022-07-10T10:29:30;4.13;;;1.30;;
37785;SDS011;23625;48.784;9.336;2022-07-10T10:31:56;7.97;;;1.63;;
37785;SDS011;23625;48.784;9.336;2022-07-10T10:34:37;3.35;;;1.48;;
37785;SDS011;23625;48.784;9.336;2022-07-10T10:37:04;4.00;;;1.67;;
37785;SDS011;23625;48.784;9.336;2022-07-10T10:39:32;4.40;;;1.40;;
37785;SDS011;23625;48.784;9.336;2022-07-10T10:48:02;6.68;;;1.50;;
37785;SDS011;23625;48.784;9.336;2022-07-10T10:50:38;5.35;;;1.35;;
37785;SDS011;23625;48.784;9.336;2022-07-10T10:53:13;3.53;;;1.13;;
37785;SDS011;23625;48.784;9.336;2022-07-10T10:55:40;4.20;;;1.38;;
37785;SDS011;23625;48.784;9.336;2022-07-10T10:58:24;3.92;;;1.02;;
37785;SDS011;23625;48.784;9.336;2022-07-10T11:00:51;2.33;;;0.90;;
37785;SDS011;23625;48.784;9.336;2022-07-10T11:03:18;2.95;;;0.88;;
37785;SDS011;23625;48.784;9.336;2022-07-10T11:05:46;2.47;;;0.90;;
37785;SDS011;23625;48.784;9.336;2022-07-10T11:08:13;4.28;;;0.85;;
37785;SDS011;23625;48.784;9.336;2022-07-10T11:10:40;8.57;;;1.10;;
37785;SDS011;23625;48.784;9.336;2022-07-10T11:15:40;2.92;;;1.00;;
37785;SDS011;23625;48.784;9.336;2022-07-10T11:18:13;5.18;;;1.15;;
37785;SDS011;23625;48.784;9.336;2022-07-10T11:26:04;6.45;;;1.15;;
37785;SDS011;23625;48.784;9.336;2022-07-10T11:31:08;2.78;;;1.33;;
37785;SDS011;23625;48.784;9.336;2022-07-10T11:33:40;5.65;;;1.20;;
37785;SDS011;23625;48.784;9.336;2022-07-10T11:36:12;4.82;;;0.98;;
37785;SDS011;23625;48.784;9.336;2022-07-10T11:38:39;4.07;;;1.35;;
37785;SDS011;23625;48.784;9.336;2022-07-10T11:41:18;8.20;;;1.48;;
37785;SDS011;23625;48.784;9.336;2022-07-10T11:43:50;11.73;;;2.00;;
37785;SDS011;23625;48.784;9.336;2022-07-10T11:46:23;3.35;;;1.15;;
37785;SDS011;23625;48.784;9.336;2022-07-10T11:48:51;6.70;;;1.02;;
37785;SDS011;23625;48.784;9.336;2022-07-10T11:54:06;2.60;;;0.90;;
37785;SDS011;23625;48.784;9.336;2022-07-10T11:56:39;6.90;;;1.65;;
37785;SDS011;23625;48.784;9.336;2022-07-10T11:59:09;8.27;;;1.77;;
37785;SDS011;23625;48.784;9.336;2022-07-10T12:01:46;9.50;;;1.80;;
37785;SDS011;23625;48.784;9.336;2022-07-10T12:04:14;4.53;;;1.23;;
37785;SDS011;23625;48.784;9.336;2022-07-10T12:06:42;5.57;;;1.42;;
37785;SDS011;23625;48.784;9.336;2022-07-10T12:09:09;6.75;;;1.35;;
37785;SDS011;23625;48.784;9.336;2022-07-10T12:11:38;2.45;;;1.20;;
37785;SDS011;23625;48.784;9.336;2022-07-10T12:16:37;3.17;;;1.30;;
37785;SDS011;23625;48.784;9.336;2022-07-10T12:19:03;6.60;;;1.23;;
37785;SDS011;23625;48.784;9.336;2022-07-10T12:21:31;5.22;;;1.30;;
37785;SDS011;23625;48.784;9.336;2022-07-10T12:23:57;5.13;;;1.20;;
37785;SDS011;23625;48.784;9.336;2022-07-10T12:26:36;6.50;;;1.55;;
37785;SDS011;23625;48.784;9.336;2022-07-10T12:29:03;4.53;;;1.30;;
37785;SDS011;23625;48.784;9.336;2022-07-10T12:31:30;3.75;;;0.88;;
37785;SDS011;23625;48.784;9.336;2022-07-10T12:34:00;1.77;;;0.98;;
37785;SDS011;23625;48.784;9.336;2022-07-10T12:36:47;3.78;;;1.35;;
37785;SDS011;23625;48.784;9.336;2022-07-10T12:39:18;1.80;;;0.90;;
37785;SDS011;23625;48.784;9.336;2022-07-10T12:44:39;2.00;;;0.85;;
37785;SDS011;23625;48.784;9.336;2022-07-10T12:47:09;1.23;;;0.65;;
37785;SDS011;23625;48.784;9.336;2022-07-10T12:50:01;2.63;;;0.80;;
37785;SDS011;23625;48.784;9.336;2022-07-10T12:57:54;2.83;;;1.10;;
37785;SDS011;23625;48.784;9.336;2022-07-10T13:00:27;3.35;;;1.00;;
37785;SDS011;23625;48.784;9.336;2022-07-10T13:05:31;3.03;;;1.10;;
37785;SDS011;23625;48.784;9.336;2022-07-10T13:11:09;3.45;;;0.95;;
37785;SDS011;23625;48.784;9.336;2022-07-10T13:13:34;2.70;;;1.15;;
37785;SDS011;23625;48.784;9.336;2022-07-10T13:16:02;4.75;;;0.90;;
37785;SDS011;23625;48.784;9.336;2022-07-10T13:18:27;4.90;;;1.38;;
37785;SDS011;23625;48.784;9.336;2022-07-10T13:20:54;2.40;;;1.15;;
37785;SDS011;23625;48.784;9.336;2022-07-10T13:23:21;2.80;;;1.00;;
37785;SDS011;23625;48.784;9.336;2022-07-10T13:25:54;4.90;;;0.63;;
37785;SDS011;23625;48.784;9.336;2022-07-10T13:28:20;4.15;;;1.45;;
37785;SDS011;23625;48.784;9.336;2022-07-10T13:30:46;2.55;;;0.77;;
37785;SDS011;23625;48.784;9.336;2022-07-10T13:33:12;2.92;;;0.77;;
37785;SDS011;23625;48.784;9.336;2022-07-10T13:35:37;6.85;;;0.90;;
37785;SDS011;23625;48.784;9.336;2022-07-10T13:38:03;3.70;;;0.80;;
37785;SDS011;23625;48.784;9.336;2022-07-10T13:40:30;2.20;;;0.98;;
37785;SDS011;23625;48.784;9.336;2022-07-10T13:42:57;3.75;;;1.00;;
37785;SDS011;23625;48.784;9.336;2022-07-10T13:45:23;8.85;;;1.20;;
37785;SDS011;23625;48.784;9.336;2022-07-10T13:47:57;1.73;;;0.80;;
37785;SDS011;23625;48.784;9.336;2022-07-10T13:50:23;4.65;;;0.82;;
37785;SDS011;23625;48.784;9.336;2022-07-10T13:52:49;1.80;;;1.17;;
37785;SDS011;23625;48.784;9.336;2022-07-10T13:55:15;5.90;;;1.08;;
37785;SDS011;23625;48.784;9.336;2022-07-10T13:57:41;5.75;;;1.00;;
37785;SDS011;23625;48.784;9.336;2022-07-10T14:00:07;1.10;;;0.60;;
37785;SDS011;23625;48.784;9.336;2022-07-10T14:02:34;3.80;;;0.85;;
37785;SDS011;23625;48.784;9.336;2022-07-10T14:05:00;2.72;;;0.60;;
37785;SDS011;23625;48.784;9.336;2022-07-10T14:07:25;5.90;;;0.68;;
37785;SDS011;23625;48.784;9.336;2022-07-10T14:09:51;5.72;;;1.33;;
37785;SDS011;23625;48.784;9.336;2022-07-10T14:12:17;1.50;;;0.85;;
37785;SDS011;23625;48.784;9.336;2022-07-10T14:14:43;2.45;;;0.65;;
37785;SDS011;23625;48.784;9.336;2022-07-10T14:17:08;7.90;;;0.98;;
37785;SDS011;23625;48.784;9.336;2022-07-10T14:19:34;1.30;;;0.68;;
37785;SDS011;23625;48.784;9.336;2022-07-10T14:22:00;1.77;;;0.93;;
37785;SDS011;23625;48.784;9.336;2022-07-10T14:24:26;5.03;;;0.70;;
37785;SDS011;23625;48.784;9.336;2022-07-10T14:26:52;6.13;;;1.10;;
37785;SDS011;23625;48.784;9.336;2022-07-10T14:29:18;3.10;;;0.82;;
37785;SDS011;23625;48.784;9.336;2022-07-10T14:31:44;1.45;;;0.60;;
37785;SDS011;23625;48.784;9.336;2022-07-10T14:34:12;4.45;;;0.63;;
37785;SDS011;23625;48.784;9.336;2022-07-10T14:36:38;2.08;;;0.60;;
37785;SDS011;23625;48.784;9.336;2022-07-10T14:39:04;1.50;;;0.60;;
37785;SDS011;23625;48.784;9.336;2022-07-10T14:41:29;7.72;;;1.08;;
37785;SDS011;23625;48.784;9.336;2022-07-10T14:43:55;3.65;;;0.70;;
37785;SDS011;23625;48.784;9.336;2022-07-10T14:46:21;1.63;;;0.52;;
37785;SDS011;23625;48.784;9.336;2022-07-10T14:48:46;4.05;;;0.85;;
37785;SDS011;23625;48.784;9.336;2022-07-10T14:51:12;3.15;;;0.50;;
37785;SDS011;23625;48.784;9.336;2022-07-10T14:53:38;2.13;;;0.68;;
37785;SDS011;23625;48.784;9.336;2022-07-10T14:56:06;5.85;;;2.00;;
37785;SDS011;23625;48.784;9.336;2022-07-10T14:58:32;2.50;;;0.63;;
37785;SDS011;23625;48.784;9.336;2022-07-10T15:00:58;3.00;;;0.70;;
37785;SDS011;23625;48.784;9.336;2022-07-10T15:03:25;2.33;;;0.80;;
37785;SDS011;23625;48.784;9.336;2022-07-10T15:05:51;6.75;;;0.70;;
37785;SDS011;23625;48.784;9.336;2022-07-10T15:08:21;2.33;;;0.88;;
37785;SDS011;23625;48.784;9.336;2022-07-10T15:10:51;2.08;;;0.60;;
37785;SDS011;23625;48.784;9.336;2022-07-10T15:13:16;2.70;;;0.65;;
37785;SDS011;23625;48.784;9.336;2022-07-10T15:15:42;4.35;;;0.70;;
37785;SDS011;23625;48.784;9.336;2022-07-10T15:18:08;3.38;;;0.80;;
37785;SDS011;23625;48.784;9.336;2022-07-10T15:20:35;1.63;;;0.50;;
37785;SDS011;23625;48.784;9.336;2022-07-10T15:23:02;6.22;;;0.65;;
37785;SDS011;23625;48.784;9.336;2022-07-10T15:25:30;6.75;;;0.80;;
37785;SDS011;23625;48.784;9.336;2022-07-10T15:27:56;4.10;;;0.60;;
37785;SDS011;23625;48.784;9.336;2022-07-10T15:30:27;5.88;;;0.90;;